Time;durP1;ratioP1;P1;durP2;ratioP2;P2;SDS_P1;SDS_P2;PMS_P1;PMS_P2;Temp;Humidity;BMP_temperature;BMP_pressure;BME280_temperature;BME280_humidity;BME280_pressure;Samples;Min_cycle;Max_cycle;Signal;HPM_P1;HPM_P2
2021/04/20 05:47:00;;;;;;;19.08;14.05;;;6.30;86.60;;;;;;5141042;27;27876;-64
2021/04/20 05:49:58;;;;;;;18.08;13.68;;;6.30;87.90;;;;;;5121624;27;27379;-64
2021/04/20 05:52:48;;;;;;;16.67;12.57;;;6.30;87.20;;;;;;5121171;27;27357;-64
2021/04/20 05:55:46;;;;;;;15.48;12.38;;;6.40;87.10;;;;;;5117453;27;27444;-64
2021/04/20 05:58:44;;;;;;;17.63;13.82;;;6.40;87.30;;;;;;5121916;27;27400;-64
2021/04/20 06:01:37;;;;;;;19.50;13.98;;;6.40;87.10;;;;;;5121447;27;27479;-64
2021/04/20 06:04:38;;;;;;;18.52;13.50;;;6.40;87.30;;;;;;5121591;27;27326;-64
2021/04/20 06:08:04;;;;;;;15.68;12.40;;;6.50;87.40;;;;;;5121531;27;27500;-64
2021/04/20 06:11:10;;;;;;;16.42;12.93;;;6.50;86.90;;;;;;5121084;27;27683;-63
2021/04/20 06:14:08;;;;;;;17.33;13.25;;;6.50;86.20;;;;;;5121338;27;27398;-63
2021/04/20 06:16:59;;;;;;;17.67;14.07;;;6.60;86.40;;;;;;5121341;27;27394;-63
2021/04/20 06:19:51;;;;;;;20.83;13.73;;;6.60;85.90;;;;;;5121470;27;27387;-63
2021/04/20 06:22:43;;;;;;;16.58;12.50;;;6.70;85.50;;;;;;5102525;27;28069;-63
2021/04/20 06:25:34;;;;;;;16.27;13.02;;;6.70;85.40;;;;;;5120284;27;27412;-64
2021/04/20 06:28:21;;;;;;;17.30;13.00;;;6.70;85.80;;;;;;5121103;27;27367;-64
2021/04/20 06:31:14;;;;;;;16.98;11.85;;;6.70;85.40;;;;;;5120561;27;27345;-63
2021/04/20 06:34:11;;;;;;;16.45;12.88;;;6.70;85.40;;;;;;5120431;27;27332;-64
2021/04/20 06:37:09;;;;;;;15.60;11.68;;;6.80;86.20;;;;;;5106136;27;27521;-64
2021/04/20 06:40:00;;;;;;;17.67;12.95;;;6.80;85.90;;;;;;5117867;27;27471;-64
2021/04/20 06:43:21;;;;;;;18.13;13.73;;;6.90;86.50;;;;;;5119970;27;27383;-64
2021/04/20 06:46:28;;;;;;;15.98;12.40;;;6.90;86.10;;;;;;5119642;27;27895;-64
2021/04/20 06:49:58;;;;;;;16.85;12.55;;;7.00;87.30;;;;;;5117073;27;27561;-64
2021/04/20 06:53:10;;;;;;;16.77;12.45;;;7.00;86.90;;;;;;5120545;27;27398;-64
2021/04/20 06:56:48;;;;;;;15.00;12.18;;;7.00;87.70;;;;;;5117066;27;27412;-64
2021/04/20 07:00:20;;;;;;;16.60;12.68;;;7.10;87.30;;;;;;5044388;28;27432;-58
2021/04/20 07:03:47;;;;;;;17.15;13.07;;;7.10;87.00;;;;;;5030177;28;27382;-61
2021/04/20 07:07:30;;;;;;;16.83;12.43;;;7.10;87.80;;;;;;5043073;28;27470;-64
2021/04/20 07:10:48;;;;;;;17.00;13.32;;;7.30;87.80;;;;;;5043927;28;27552;-65
2021/04/20 07:13:50;;;;;;;16.63;12.32;;;7.30;87.80;;;;;;5055083;28;27527;-64
2021/04/20 07:17:04;;;;;;;18.30;12.35;;;7.30;88.00;;;;;;5044020;28;27369;-63
2021/04/20 07:20:25;;;;;;;17.65;12.48;;;7.40;86.90;;;;;;5044412;28;27437;-65
2021/04/20 07:23:33;;;;;;;16.48;12.13;;;7.50;88.00;;;;;;5044025;28;27513;-64
2021/04/20 07:27:15;;;;;;;17.10;12.23;;;7.50;87.90;;;;;;5040684;28;27886;-65
2021/04/20 07:30:32;;;;;;;17.10;14.02;;;7.60;87.70;;;;;;5075586;28;27645;-64
2021/04/20 07:33:56;;;;;;;19.02;13.88;;;7.60;87.40;;;;;;5106899;28;27458;-64
2021/04/20 07:37:29;;;;;;;18.73;13.63;;;7.60;87.70;;;;;;5104171;28;27386;-64
2021/04/20 07:41:01;;;;;;;19.40;14.02;;;7.70;88.00;;;;;;5106300;28;27495;-63
2021/04/20 07:44:08;;;;;;;21.02;14.30;;;7.80;88.00;;;;;;5102957;28;27489;-64
2021/04/20 07:47:11;;;;;;;19.35;12.82;;;7.90;88.00;;;;;;5103349;28;27325;-64
2021/04/20 07:50:27;;;;;;;21.15;14.35;;;8.10;88.20;;;;;;5105844;28;26885;-64
2021/04/20 07:53:44;;;;;;;18.00;13.30;;;8.20;88.00;;;;;;5105247;28;27343;-64
2021/04/20 07:56:47;;;;;;;19.05;13.00;;;8.40;88.20;;;;;;5104872;28;27350;-60
2021/04/20 08:00:09;;;;;;;20.60;13.57;;;8.50;88.20;;;;;;5105427;28;27351;-65
2021/04/20 08:03:19;;;;;;;18.10;13.85;;;8.70;87.80;;;;;;5105942;28;27370;-65
2021/04/20 08:06:19;;;;;;;20.15;15.35;;;8.70;87.70;;;;;;5105959;28;27964;-64
2021/04/20 08:09:09;;;;;;;17.88;13.63;;;8.90;87.30;;;;;;5090010;28;27402;-65
2021/04/20 08:12:12;;;;;;;19.58;14.35;;;9.00;87.20;;;;;;5105483;28;27532;-64
2021/04/20 08:15:19;;;;;;;18.45;14.15;;;9.10;87.10;;;;;;5102592;28;27346;-64
2021/04/20 08:18:14;;;;;;;19.95;15.25;;;9.30;86.70;;;;;;5102695;28;27457;-64
2021/04/20 08:21:04;;;;;;;20.50;15.85;;;9.40;86.20;;;;;;5105747;28;27366;-64
2021/04/20 08:23:55;;;;;;;19.20;14.10;;;9.60;85.40;;;;;;5105867;28;27477;-63
2021/04/20 08:27:11;;;;;;;19.00;14.15;;;9.70;85.30;;;;;;5105980;28;27419;-64
2021/04/20 08:30:09;;;;;;;17.20;13.40;;;9.90;84.80;;;;;;5105704;28;27453;-64
2021/04/20 08:33:37;;;;;;;22.35;15.23;;;10.40;85.20;;;;;;5105626;28;27379;-62
2021/04/20 08:37:16;;;;;;;20.50;14.65;;;11.10;83.60;;;;;;5105604;28;27469;-64
2021/04/20 08:40:15;;;;;;;18.60;14.73;;;11.90;80.60;;;;;;5105452;28;27504;-64
2021/04/20 08:43:27;;;;;;;17.38;14.20;;;12.30;79.80;;;;;;5105418;28;27841;-64
2021/04/20 08:46:53;;;;;;;21.92;14.35;;;13.00;77.80;;;;;;5104653;28;27393;-63
2021/04/20 08:49:43;;;;;;;21.50;14.18;;;13.60;74.90;;;;;;5107272;27;27429;-63
2021/04/20 08:52:54;;;;;;;18.40;14.13;;;14.20;73.50;;;;;;5105612;28;26887;-64
2021/04/20 08:55:46;;;;;;;19.05;14.25;;;14.70;71.90;;;;;;5104837;28;27356;-63
2021/04/20 08:58:40;;;;;;;18.98;14.25;;;15.00;71.30;;;;;;5101754;28;27457;-63
2021/04/20 09:01:50;;;;;;;17.70;13.70;;;15.40;68.80;;;;;;5105439;28;27351;-62
2021/04/20 09:05:13;;;;;;;16.42;13.40;;;15.80;68.90;;;;;;5104966;28;27330;-64
2021/04/20 09:08:24;;;;;;;16.33;13.55;;;16.20;68.10;;;;;;5104191;28;27489;-64
2021/04/20 09:11:36;;;;;;;18.10;13.25;;;16.50;66.80;;;;;;5104316;28;27474;-63
2021/04/20 09:14:51;;;;;;;17.95;13.77;;;16.80;67.90;;;;;;5104163;28;27394;-64
2021/04/20 09:18:05;;;;;;;18.02;13.80;;;17.10;65.50;;;;;;5101618;28;27450;-63
2021/04/20 09:21:20;;;;;;;16.15;13.75;;;17.40;66.20;;;;;;5103889;28;27329;-63
2021/04/20 09:24:13;;;;;;;15.27;12.88;;;17.50;63.60;;;;;;5104193;28;27372;-64
2021/04/20 09:27:39;;;;;;;18.60;14.70;;;17.70;64.40;;;;;;5103657;28;27428;-63
2021/04/20 09:30:56;;;;;;;19.17;14.98;;;17.90;66.20;;;;;;5104709;28;27401;-64
2021/04/20 09:33:53;;;;;;;19.55;14.98;;;18.00;66.00;;;;;;5101367;28;27410;-60
2021/04/20 09:36:37;;;;;;;20.38;14.77;;;18.20;65.50;;;;;;5104632;28;27367;-59
2021/04/20 09:39:44;;;;;;;17.38;14.77;;;18.30;64.30;;;;;;5089826;28;27412;-62
2021/04/20 09:42:57;;;;;;;20.23;14.95;;;18.40;65.40;;;;;;5103030;28;27485;-63
2021/04/20 09:46:12;;;;;;;20.77;16.08;;;18.50;65.90;;;;;;5103302;28;27984;-63
2021/04/20 09:49:12;;;;;;;17.67;14.68;;;18.60;65.30;;;;;;5101164;28;27406;-63
2021/04/20 09:52:26;;;;;;;18.35;15.45;;;18.70;65.80;;;;;;5104198;28;27581;-64
2021/04/20 09:55:56;;;;;;;19.40;15.57;;;18.80;64.40;;;;;;5103930;28;27534;-63
2021/04/20 09:59:48;;;;;;;16.42;14.73;;;19.00;66.00;;;;;;5104218;28;27355;-64
2021/04/20 10:03:32;;;;;;;16.17;13.77;;;19.20;63.80;;;;;;5103808;28;27505;-64
2021/04/20 10:06:41;;;;;;;17.52;14.35;;;19.40;64.40;;;;;;5104016;28;27398;-64
2021/04/20 10:10:29;;;;;;;15.32;12.90;;;19.50;65.70;;;;;;5104188;28;27342;-64
2021/04/20 10:13:46;;;;;;;13.90;11.70;;;19.80;65.40;;;;;;5041249;28;27858;-65
2021/04/20 10:17:15;;;;;;;12.82;11.40;;;19.90;65.10;;;;;;5041391;28;27634;-65
2021/04/20 10:20:56;;;;;;;14.00;12.02;;;20.00;65.10;;;;;;5041103;28;27421;-64
2021/04/20 10:24:32;;;;;;;13.48;11.20;;;20.00;64.80;;;;;;5027183;28;27519;-65
2021/04/20 10:27:25;;;;;;;10.50;9.38;;;20.10;65.20;;;;;;5041837;28;27540;-63
2021/04/20 10:30:37;;;;;;;11.35;10.15;;;20.10;64.60;;;;;;5027795;28;27613;-65
2021/04/20 10:33:23;;;;;;;8.45;7.55;;;20.10;65.20;;;;;;5058774;28;27376;-60
2021/04/20 10:36:15;;;;;;;7.05;6.35;;;20.10;62.40;;;;;;5031333;28;27433;-64
2021/04/20 10:39:06;;;;;;;8.82;7.68;;;20.10;63.00;;;;;;5045195;28;27386;-64
2021/04/20 10:42:03;;;;;;;9.35;8.27;;;20.10;64.70;;;;;;5030852;28;27548;-65
2021/04/20 10:45:21;;;;;;;8.70;7.43;;;20.10;65.00;;;;;;5042279;28;27567;-65
2021/04/20 10:48:33;;;;;;;7.57;6.80;;;20.20;64.70;;;;;;5107106;28;27340;-65
2021/04/20 10:51:28;;;;;;;8.30;6.50;;;20.20;61.90;;;;;;5107254;28;27507;-65
2021/04/20 10:54:20;;;;;;;8.30;7.05;;;20.20;62.60;;;;;;5106536;28;27522;-65
2021/04/20 10:57:07;;;;;;;7.32;6.30;;;20.30;61.20;;;;;;5103808;28;27461;-66
2021/04/20 11:00:05;;;;;;;8.15;6.70;;;20.30;61.20;;;;;;5106485;28;27472;-65
2021/04/20 11:03:18;;;;;;;6.35;5.65;;;20.30;61.60;;;;;;5077160;28;27404;-65
2021/04/20 11:06:41;;;;;;;6.68;6.07;;;20.40;62.40;;;;;;5083173;28;27448;-65
2021/04/20 11:09:56;;;;;;;7.93;6.30;;;20.50;65.40;;;;;;5107105;28;27454;-65
2021/04/20 11:13:04;;;;;;;8.20;6.00;;;20.60;65.70;;;;;;5104860;28;27435;-65
2021/04/20 11:15:56;;;;;;;8.07;6.07;;;20.80;63.30;;;;;;5106702;28;27884;-65
2021/04/20 11:19:02;;;;;;;8.52;6.03;;;20.80;62.70;;;;;;5092232;28;27497;-72
2021/04/20 11:22:03;;;;;;;6.88;5.90;;;20.80;49.10;;;;;;5103684;28;27433;-64
2021/04/20 11:25:50;;;;;;;8.23;6.90;;;20.70;47.30;;;;;;5106674;28;27319;-66
2021/04/20 11:29:28;;;;;;;6.88;5.93;;;20.60;50.50;;;;;;5106712;28;27328;-66
2021/04/20 11:32:55;;;;;;;6.53;5.25;;;20.20;53.20;;;;;;5106618;28;27454;-67
2021/04/20 11:36:23;;;;;;;6.55;5.85;;;19.90;56.70;;;;;;5104935;28;27483;-66
2021/04/20 11:39:38;;;;;;;7.50;6.50;;;19.60;58.30;;;;;;5103048;28;27312;-66
2021/04/20 11:42:47;;;;;;;7.47;6.55;;;19.30;59.10;;;;;;5105804;27;27845;-66
2021/04/20 11:46:22;;;;;;;7.70;5.72;;;19.30;61.20;;;;;;5104412;28;27477;-66
2021/04/20 11:49:48;;;;;;;8.43;6.57;;;19.30;61.90;;;;;;5106151;28;27410;-66
2021/04/20 11:52:57;;;;;;;8.40;6.88;;;19.30;63.70;;;;;;5105002;28;27456;-66
2021/04/20 11:56:06;;;;;;;7.75;6.10;;;19.50;64.30;;;;;;5106370;28;27367;-67
2021/04/20 11:59:18;;;;;;;8.75;6.47;;;19.60;64.30;;;;;;5105003;28;27430;-66
2021/04/20 12:02:26;;;;;;;6.65;5.75;;;19.60;63.30;;;;;;5106532;28;27391;-66
2021/04/20 12:05:53;;;;;;;6.53;5.47;;;19.80;63.90;;;;;;5105018;28;27459;-67
2021/04/20 12:08:59;;;;;;;6.68;5.78;;;19.90;63.40;;;;;;5105446;28;27568;-66
2021/04/20 12:12:07;;;;;;;6.32;5.70;;;20.00;63.70;;;;;;5105671;28;27478;-67
2021/04/20 12:15:15;;;;;;;7.53;5.75;;;19.90;63.80;;;;;;5106100;28;27344;-66
2021/04/20 12:18:21;;;;;;;6.38;5.53;;;19.70;64.30;;;;;;5105748;28;27423;-66
2021/04/20 12:21:20;;;;;;;7.30;6.22;;;19.50;63.10;;;;;;5105188;28;27415;-60
2021/04/20 12:24:25;;;;;;;6.30;5.70;;;19.50;64.40;;;;;;5105196;28;27419;-67
2021/04/20 12:27:44;;;;;;;8.02;6.07;;;19.40;63.50;;;;;;5105265;28;27424;-67
2021/04/20 12:31:33;;;;;;;7.20;5.53;;;19.30;65.30;;;;;;5102411;28;27332;-66
2021/04/20 12:34:29;;;;;;;6.20;5.10;;;19.20;64.60;;;;;;5104923;28;27938;-67
2021/04/20 12:37:27;;;;;;;5.45;4.95;;;19.10;65.20;;;;;;5105222;28;27405;-66
2021/04/20 12:40:55;;;;;;;6.20;4.80;;;19.10;63.90;;;;;;5105773;28;27386;-67
2021/04/20 12:44:10;;;;;;;5.82;4.88;;;19.00;61.60;;;;;;5105674;28;27348;-67
2021/04/20 12:47:17;;;;;;;5.40;4.78;;;19.10;61.00;;;;;;5104572;28;27478;-67
2021/04/20 12:50:27;;;;;;;5.00;4.43;;;19.20;61.60;;;;;;5104785;28;27389;-67
2021/04/20 12:53:54;;;;;;;5.80;4.72;;;19.30;63.20;;;;;;5105279;28;27372;-66
2021/04/20 12:57:49;;;;;;;6.28;4.40;;;19.30;61.80;;;;;;5102065;28;27327;-67
2021/04/20 13:00:42;;;;;;;6.40;4.78;;;19.20;60.90;;;;;;5105304;28;27344;-66
2021/04/20 13:04:13;;;;;;;5.53;4.53;;;19.10;60.80;;;;;;5101259;28;27340;-60
2021/04/20 13:07:25;;;;;;;5.95;4.85;;;19.10;61.80;;;;;;5101930;28;27416;-66
2021/04/20 13:10:29;;;;;;;7.60;4.57;;;19.10;65.30;;;;;;5105172;28;27568;-67
2021/04/20 13:13:56;;;;;;;7.97;5.57;;;19.00;64.10;;;;;;5104757;28;27989;-66
2021/04/20 13:17:30;;;;;;;7.00;5.72;;;18.90;61.70;;;;;;5105005;28;27497;-67
2021/04/20 13:21:35;;;;;;;6.55;5.63;;;19.00;63.30;;;;;;5101712;28;27343;-66
2021/04/20 13:24:42;;;;;;;5.60;5.00;;;19.00;66.80;;;;;;5104063;28;27454;-66
2021/04/20 13:27:53;;;;;;;6.50;4.63;;;19.00;64.40;;;;;;5103831;28;27985;-67
2021/04/20 13:31:11;;;;;;;5.88;4.97;;;18.90;62.30;;;;;;5104841;28;27438;-67
2021/04/20 13:34:42;;;;;;;7.10;4.80;;;18.80;61.30;;;;;;5104693;28;27410;-67
2021/04/20 13:37:32;;;;;;;5.07;4.57;;;18.90;65.20;;;;;;5104143;28;27647;-67
2021/04/20 13:40:42;;;;;;;6.28;5.43;;;19.00;70.30;;;;;;5103829;28;27507;-67
2021/04/20 13:43:50;;;;;;;8.68;5.50;;;19.20;68.80;;;;;;5103528;28;27386;-68
2021/04/20 13:47:17;;;;;;;5.22;4.65;;;19.30;69.80;;;;;;5102145;28;27458;-68
2021/04/20 13:50:41;;;;;;;6.18;4.60;;;19.50;69.70;;;;;;5104467;28;26955;-68
2021/04/20 13:53:53;;;;;;;6.60;4.45;;;19.60;70.80;;;;;;5104597;28;27817;-68
2021/04/20 13:57:02;;;;;;;5.25;4.57;;;19.60;67.50;;;;;;5101396;28;27371;-67
2021/04/20 14:00:15;;;;;;;4.70;4.13;;;19.50;66.10;;;;;;5103282;28;27504;-67
2021/04/20 14:03:25;;;;;;;5.88;5.15;;;19.50;65.00;;;;;;5103780;28;27439;-67
2021/04/20 14:06:31;;;;;;;4.90;4.40;;;19.50;65.80;;;;;;5104576;27;27382;-67
2021/04/20 14:09:40;;;;;;;5.32;4.78;;;19.40;64.20;;;;;;5107731;28;27336;-66
2021/04/20 14:12:30;;;;;;;6.18;4.63;;;19.30;64.00;;;;;;5108339;28;27423;-60
2021/04/20 14:15:55;;;;;;;4.82;4.35;;;19.30;63.10;;;;;;5107777;28;27315;-67
2021/04/20 14:19:23;;;;;;;7.15;4.88;;;19.20;62.60;;;;;;5107275;28;27471;-68
2021/04/20 14:23:30;;;;;;;4.82;4.20;;;19.10;61.90;;;;;;5106621;28;27323;-67
2021/04/20 14:26:45;;;;;;;6.53;4.07;;;18.90;61.70;;;;;;5107812;28;27641;-66
2021/04/20 14:30:02;;;;;;;5.45;4.32;;;18.70;61.80;;;;;;5078427;28;27457;-63
2021/04/20 14:32:59;;;;;;;11.85;5.68;;;18.60;59.60;;;;;;5107520;28;27471;-63
2021/04/20 14:35:43;;;;;;;5.97;5.38;;;18.40;55.30;;;;;;5106699;28;27487;-47
2021/04/20 14:38:33;;;;;;;6.03;5.35;;;18.20;52.20;;;;;;5104442;28;27453;-64
2021/04/20 14:41:35;;;;;;;6.15;5.55;;;18.00;51.50;;;;;;5107446;28;27313;-57
2021/04/20 14:44:29;;;;;;;6.18;4.97;;;17.80;51.00;;;;;;5107055;28;27856;-58
2021/04/20 14:47:43;;;;;;;6.47;5.15;;;17.70;50.40;;;;;;5107004;28;27414;-49
2021/04/20 14:51:01;;;;;;;8.40;4.95;;;17.50;50.20;;;;;;5103954;28;27403;-48
2021/04/20 14:53:52;;;;;;;6.80;5.32;;;17.40;52.20;;;;;;5102986;28;27388;-48
2021/04/20 14:56:43;;;;;;;6.57;5.60;;;17.40;55.20;;;;;;5105816;28;27978;-49
2021/04/20 14:59:35;;;;;;;6.88;5.28;;;17.40;57.00;;;;;;5091793;28;27406;-48
2021/04/20 15:02:26;;;;;;;6.38;4.63;;;17.30;58.30;;;;;;5106843;28;27394;-51
2021/04/20 15:05:26;;;;;;;7.90;4.60;;;17.30;58.80;;;;;;5106323;28;27461;-48
2021/04/20 15:08:17;;;;;;;4.47;4.07;;;17.30;59.10;;;;;;5106931;28;27954;-47
2021/04/20 15:11:08;;;;;;;6.10;4.53;;;17.30;59.70;;;;;;5105745;28;27594;-49
2021/04/20 15:14:25;;;;;;;4.78;4.28;;;17.40;60.40;;;;;;5105886;28;27352;-53
2021/04/20 15:17:28;;;;;;;8.65;4.72;;;17.40;60.70;;;;;;5078259;28;27502;-48
2021/04/20 15:20:23;;;;;;;5.78;4.20;;;17.50;60.70;;;;;;5106476;28;27366;-49
2021/04/20 15:23:18;;;;;;;5.15;4.65;;;17.50;59.20;;;;;;5102480;28;27342;-50
2021/04/20 15:26:29;;;;;;;5.35;4.30;;;17.60;59.70;;;;;;5106570;28;27360;-49
2021/04/20 15:29:29;;;;;;;5.10;3.90;;;17.60;59.50;;;;;;5106475;28;27394;-47
2021/04/20 15:32:23;;;;;;;5.70;3.88;;;17.70;59.80;;;;;;5105810;28;27340;-50
2021/04/20 15:35:32;;;;;;;5.28;4.13;;;17.70;59.50;;;;;;5106510;28;27404;-47
2021/04/20 15:38:37;;;;;;;6.68;4.93;;;17.80;59.80;;;;;;5106265;28;27412;-51
2021/04/20 15:41:31;;;;;;;6.53;5.28;;;17.90;59.70;;;;;;5106133;28;27420;-52
2021/04/20 15:44:25;;;;;;;9.00;6.90;;;18.00;60.50;;;;;;5091583;28;27920;-53
2021/04/20 15:47:12;;;;;;;8.85;7.40;;;18.10;59.60;;;;;;5106115;28;27469;-52
2021/04/20 15:50:10;;;;;;;9.38;7.40;;;18.10;60.20;;;;;;5090926;28;27424;-50
2021/04/20 15:53:02;;;;;;;9.65;7.45;;;18.20;58.50;;;;;;5105248;28;27328;-49
2021/04/20 15:56:18;;;;;;;9.35;7.50;;;18.20;59.00;;;;;;5105883;28;27419;-48
2021/04/20 15:59:30;;;;;;;11.15;8.40;;;18.20;59.20;;;;;;5106146;28;27461;-53
2021/04/20 16:02:42;;;;;;;9.95;7.28;;;18.20;59.30;;;;;;5105555;28;27419;-48
2021/04/20 16:05:34;;;;;;;9.93;7.60;;;18.20;60.00;;;;;;5106107;28;27386;-49
2021/04/20 16:08:35;;;;;;;8.48;7.47;;;18.20;60.30;;;;;;5102668;28;27360;-49
2021/04/20 16:11:36;;;;;;;10.30;8.27;;;18.30;61.10;;;;;;5102694;28;27574;-48
2021/04/20 16:14:30;;;;;;;8.80;7.47;;;18.30;62.00;;;;;;5104921;28;27403;-48
2021/04/20 16:17:38;;;;;;;11.98;8.10;;;18.30;61.70;;;;;;5106091;28;27386;-46
2021/04/20 16:20:45;;;;;;;11.00;8.80;;;18.30;61.20;;;;;;5104997;28;27376;-51
2021/04/20 16:24:14;;;;;;;10.18;8.15;;;18.30;59.20;;;;;;5105448;28;27414;-50
2021/04/20 16:28:00;;;;;;;9.40;8.13;;;18.30;60.20;;;;;;5105250;28;27401;-47
2021/04/20 16:31:25;;;;;;;10.45;8.55;;;18.20;59.50;;;;;;5104606;28;27316;-49
2021/04/20 16:34:36;;;;;;;10.10;7.53;;;18.20;57.90;;;;;;5105393;28;27377;-48
2021/04/20 16:38:10;;;;;;;12.77;9.10;;;18.20;58.30;;;;;;5102305;28;27513;-50
2021/04/20 16:41:44;;;;;;;10.85;8.68;;;18.20;58.50;;;;;;5084294;27;27487;-50
2021/04/20 16:44:56;;;;;;;9.25;7.78;;;18.20;58.60;;;;;;5105068;28;27406;-48
2021/04/20 16:48:58;;;;;;;10.55;8.13;;;18.20;59.10;;;;;;5101729;28;27363;-50
2021/04/20 16:52:37;;;;;;;10.27;7.97;;;18.10;58.80;;;;;;5104538;28;27552;-51
2021/04/20 16:55:32;;;;;;;9.85;7.70;;;18.10;59.50;;;;;;5105183;28;27370;-52
2021/04/20 16:59:12;;;;;;;12.05;8.82;;;18.10;59.10;;;;;;5104665;28;27470;-49
2021/04/20 17:02:47;;;;;;;10.50;7.95;;;18.10;58.10;;;;;;5104496;28;27493;-51
2021/04/20 17:05:58;;;;;;;11.68;7.90;;;18.10;58.70;;;;;;5104736;28;27496;-47
2021/04/20 17:09:10;;;;;;;9.73;7.55;;;18.10;59.40;;;;;;5105110;28;27342;-51
2021/04/20 17:12:00;;;;;;;9.05;7.60;;;18.00;59.50;;;;;;5105331;28;27334;-49
2021/04/20 17:15:38;;;;;;;9.88;8.13;;;18.00;58.50;;;;;;5103617;28;27940;-51
2021/04/20 17:18:49;;;;;;;10.68;8.68;;;17.80;58.00;;;;;;5104909;28;27544;-51
2021/04/20 17:21:50;;;;;;;11.02;8.57;;;17.70;58.00;;;;;;5104928;28;27354;-48
2021/04/20 17:25:11;;;;;;;11.05;7.85;;;17.60;58.40;;;;;;5104769;28;27378;-48
2021/04/20 17:29:25;;;;;;;12.43;8.57;;;17.50;58.20;;;;;;5101210;28;27840;-49
2021/04/20 17:32:37;;;;;;;11.60;8.60;;;17.30;59.20;;;;;;5061775;28;27606;-50
2021/04/20 17:35:40;;;;;;;12.30;8.43;;;17.20;59.10;;;;;;5044751;28;27370;-47
2021/04/20 17:38:52;;;;;;;9.50;7.50;;;17.10;59.80;;;;;;5062644;28;27505;-51
2021/04/20 17:41:59;;;;;;;10.77;7.47;;;16.90;60.70;;;;;;5050749;28;27539;-49
2021/04/20 17:45:22;;;;;;;11.85;8.30;;;16.80;62.00;;;;;;5061243;28;27545;-51
2021/04/20 17:48:36;;;;;;;8.48;7.30;;;16.60;62.40;;;;;;5059260;28;27500;-52
2021/04/20 17:51:47;;;;;;;11.32;8.52;;;16.50;60.50;;;;;;5032195;28;27376;-52
2021/04/20 17:55:05;;;;;;;9.43;7.63;;;16.40;61.40;;;;;;5061969;28;27440;-49
2021/04/20 17:58:17;;;;;;;9.25;8.02;;;16.30;61.60;;;;;;5048143;28;27366;-53
2021/04/20 18:01:54;;;;;;;10.20;7.47;;;16.10;62.20;;;;;;5061896;28;27377;-47
2021/04/20 18:04:55;;;;;;;9.55;7.18;;;16.00;62.10;;;;;;5103855;28;27398;-47
2021/04/20 18:08:56;;;;;;;9.10;6.30;;;15.90;63.00;;;;;;5102279;28;28055;-49
2021/04/20 18:12:29;;;;;;;9.15;6.55;;;15.70;63.50;;;;;;5104097;28;27458;-47
2021/04/20 18:16:17;;;;;;;8.63;6.45;;;15.60;63.40;;;;;;5103381;28;27336;-49
2021/04/20 18:20:02;;;;;;;12.07;7.00;;;15.50;62.00;;;;;;5104021;28;27458;-48
2021/04/20 18:23:40;;;;;;;9.25;6.63;;;15.40;63.00;;;;;;5103854;28;27403;-48
2021/04/20 18:27:14;;;;;;;9.88;6.78;;;15.20;63.20;;;;;;5103637;28;27510;-49
2021/04/20 18:31:01;;;;;;;10.32;7.90;;;15.10;63.70;;;;;;5100716;28;27411;-49
2021/04/20 18:34:36;;;;;;;14.27;7.85;;;15.00;63.40;;;;;;5103575;28;27644;-48
2021/04/20 18:37:43;;;;;;;8.05;6.35;;;14.90;63.70;;;;;;5103708;28;27394;-48
2021/04/20 18:41:21;;;;;;;9.70;7.30;;;14.80;63.90;;;;;;5104079;28;27355;-51
2021/04/20 18:45:13;;;;;;;12.02;7.07;;;14.70;63.70;;;;;;5101406;28;27392;-49
2021/04/20 18:48:18;;;;;;;11.43;7.90;;;14.60;63.90;;;;;;5100427;28;27402;-50
2021/04/20 18:51:24;;;;;;;10.10;8.13;;;14.50;64.00;;;;;;5099847;28;27961;-49
2021/04/20 18:54:38;;;;;;;9.65;7.20;;;14.40;64.30;;;;;;5106120;28;27566;-48
2021/04/20 18:58:07;;;;;;;11.07;8.38;;;14.30;64.30;;;;;;5107114;28;27411;-47
2021/04/20 19:01:20;;;;;;;9.90;7.30;;;14.20;64.30;;;;;;5106420;28;27639;-49
2021/04/20 19:04:33;;;;;;;11.85;7.90;;;14.10;64.70;;;;;;5103714;28;27332;-47
2021/04/20 19:08:02;;;;;;;9.75;7.70;;;14.00;64.70;;;;;;5107204;28;27369;-46
2021/04/20 19:11:29;;;;;;;10.00;7.25;;;14.00;65.10;;;;;;5106775;28;27414;-50
2021/04/20 19:15:08;;;;;;;10.70;7.78;;;13.90;65.00;;;;;;5106731;28;27468;-46
2021/04/20 19:18:49;;;;;;;7.75;6.40;;;13.80;65.20;;;;;;5103186;28;27394;-46
2021/04/20 19:22:06;;;;;;;10.55;7.10;;;13.70;65.40;;;;;;5107057;28;27411;-49
2021/04/20 19:25:26;;;;;;;10.65;6.63;;;13.70;65.40;;;;;;5106950;28;27389;-48
2021/04/20 19:28:54;;;;;;;10.70;7.53;;;13.60;65.40;;;;;;5106532;28;27478;-47
2021/04/20 19:32:38;;;;;;;10.55;7.00;;;13.50;65.40;;;;;;5103248;28;27340;-50
2021/04/20 19:35:37;;;;;;;12.57;7.00;;;13.40;65.50;;;;;;5106061;28;27509;-48
2021/04/20 19:38:43;;;;;;;12.50;7.18;;;13.40;65.40;;;;;;5106503;28;27418;-46
2021/04/20 19:41:41;;;;;;;9.48;6.72;;;13.20;65.50;;;;;;5106753;28;27305;-46
2021/04/20 19:44:59;;;;;;;8.52;6.22;;;13.20;65.70;;;;;;5105812;28;27934;-46
2021/04/20 19:48:26;;;;;;;9.45;6.50;;;13.10;65.50;;;;;;5085681;28;27399;-48
2021/04/20 19:51:35;;;;;;;9.60;6.55;;;13.10;65.80;;;;;;5084847;28;27667;-47
2021/04/20 19:54:46;;;;;;;11.63;6.95;;;13.00;65.90;;;;;;5085290;28;27463;-48
2021/04/20 19:58:09;;;;;;;9.20;7.15;;;12.90;65.80;;;;;;5085757;28;27880;-47
2021/04/20 20:01:15;;;;;;;12.27;8.82;;;12.80;65.90;;;;;;5085903;28;27443;-46
2021/04/20 20:04:13;;;;;;;11.45;8.85;;;12.70;65.90;;;;;;5086140;28;27403;-47
2021/04/20 20:07:50;;;;;;;14.13;7.95;;;12.70;65.90;;;;;;5084934;28;27469;-49
2021/04/20 20:11:19;;;;;;;16.67;9.70;;;12.60;66.00;;;;;;5085368;28;27876;-47
2021/04/20 20:14:25;;;;;;;15.60;10.23;;;12.60;66.00;;;;;;5085391;28;27420;-47
2021/04/20 20:17:12;;;;;;;13.18;9.45;;;12.50;66.10;;;;;;5083450;28;27594;-51
2021/04/20 20:20:25;;;;;;;16.33;10.00;;;12.50;66.10;;;;;;5085623;28;27329;-48
2021/04/20 20:23:39;;;;;;;21.35;10.95;;;12.40;66.20;;;;;;5084290;28;27507;-47
2021/04/20 20:26:48;;;;;;;14.25;9.43;;;12.40;66.20;;;;;;5085358;28;27490;-49
2021/04/20 20:29:42;;;;;;;13.15;8.82;;;12.30;66.10;;;;;;5085266;28;27414;-51
2021/04/20 20:32:40;;;;;;;13.63;9.07;;;12.30;66.30;;;;;;5084745;28;27328;-50
2021/04/20 20:35:32;;;;;;;12.98;8.63;;;12.20;66.30;;;;;;5084954;28;27490;-53
2021/04/20 20:38:39;;;;;;;13.52;9.27;;;12.20;66.40;;;;;;5084285;28;27364;-51
2021/04/20 20:41:38;;;;;;;10.10;8.13;;;12.10;66.50;;;;;;5084946;28;27438;-49
2021/04/20 20:45:00;;;;;;;15.52;8.65;;;12.00;66.50;;;;;;5084534;28;27404;-52
2021/04/20 20:48:18;;;;;;;16.55;11.35;;;12.00;66.70;;;;;;5081659;28;27481;-51
2021/04/20 20:51:27;;;;;;;16.15;11.15;;;11.90;66.60;;;;;;5084861;28;27440;-51
2021/04/20 20:54:25;;;;;;;17.52;11.88;;;11.90;66.60;;;;;;5084325;28;27371;-48
2021/04/20 20:57:35;;;;;;;16.23;11.45;;;11.80;66.60;;;;;;5084772;28;27477;-45
2021/04/20 21:00:42;;;;;;;15.60;10.70;;;11.80;66.60;;;;;;5085026;28;27414;-47
2021/04/20 21:03:35;;;;;;;16.50;11.00;;;11.70;66.70;;;;;;5084009;28;27423;-48
2021/04/20 21:06:35;;;;;;;19.02;12.93;;;11.70;66.90;;;;;;5084756;28;27407;-48
2021/04/20 21:09:53;;;;;;;17.65;12.10;;;11.70;66.80;;;;;;5085034;28;27411;-46
2021/04/20 21:12:49;;;;;;;17.15;12.18;;;11.60;66.90;;;;;;5081931;28;27411;-46
2021/04/20 21:15:51;;;;;;;17.65;11.93;;;11.50;67.10;;;;;;5083971;28;27502;-46
2021/04/20 21:18:39;;;;;;;14.68;10.15;;;11.50;67.10;;;;;;5084736;28;27473;-46
2021/04/20 21:21:38;;;;;;;16.08;10.85;;;11.40;67.10;;;;;;5083777;28;27010;-46
2021/04/20 21:24:56;;;;;;;17.20;11.35;;;11.40;67.00;;;;;;5081486;28;27411;-47
2021/04/20 21:27:50;;;;;;;18.02;11.88;;;11.30;67.20;;;;;;5084647;28;27474;-46
2021/04/20 21:31:16;;;;;;;19.17;12.13;;;11.20;67.30;;;;;;5083681;28;27463;-46
2021/04/20 21:34:22;;;;;;;13.63;10.23;;;11.20;67.30;;;;;;5084533;28;27469;-47
2021/04/20 21:37:36;;;;;;;16.90;10.30;;;11.20;67.40;;;;;;5084493;28;27407;-48
2021/04/20 21:40:42;;;;;;;15.40;10.02;;;11.10;67.10;;;;;;5081238;28;27461;-46
2021/04/20 21:44:02;;;;;;;16.90;10.30;;;11.10;67.10;;;;;;5084143;28;27376;-45
2021/04/20 21:47:27;;;;;;;14.60;10.23;;;11.10;67.40;;;;;;5104597;28;26959;-47
2021/04/20 21:50:20;;;;;;;14.45;9.82;;;11.00;67.20;;;;;;5104365;28;27344;-51
2021/04/20 21:53:35;;;;;;;13.45;10.13;;;11.00;67.30;;;;;;5089575;28;27647;-46
2021/04/20 21:57:06;;;;;;;15.35;9.75;;;10.90;67.40;;;;;;5103865;28;27505;-47
2021/04/20 22:00:25;;;;;;;14.07;9.50;;;10.90;67.40;;;;;;5101120;28;26895;-46
2021/04/20 22:03:26;;;;;;;14.40;10.43;;;10.80;67.50;;;;;;5104261;28;27362;-46
2021/04/20 22:06:20;;;;;;;13.18;8.88;;;10.70;67.40;;;;;;5104171;28;27470;-46
2021/04/20 22:09:15;;;;;;;13.35;9.45;;;10.70;67.60;;;;;;5090114;28;27429;-47
2021/04/20 22:12:22;;;;;;;14.52;8.98;;;10.70;67.80;;;;;;5101441;28;27314;-46
2021/04/20 22:15:20;;;;;;;10.57;7.88;;;10.60;67.70;;;;;;5103549;28;27492;-47